Weather History for Hazen, ND

Change the Weather History Date:

Sunday, October 27, 2013

  Actual Average (KN60) Record (KN60)
Temperature  
Mean Temperature 35 °F -  
Max Temperature 44 °F 46 °F 66 °F (2005)
Min Temperature 24 °F 26 °F 18 °F (2008)
Degree Days  
Heating Degree Days 30    
Moisture  
Dew Point 27 °F    
Average Humidity 75    
Maximum Humidity 100    
Minimum Humidity 53    
Precipitation  
Precipitation 0.00 in - - ()
Sea Level Pressure  
Sea Level Pressure 30.03 in    
Wind  
Wind Speed 9 mph (NE)    
Max Wind Speed 20 mph    
Max Gust Speed 28 mph    
Visibility 10 miles    
Events      
Averages and records for this station are not official NWS values.
T = Trace of Precipitation, MM = Missing Value Source: NWS Daily Summary

Daily Weather History Graph

Daily Weather History Graph

Search for Another Location

Airport:

Trip Planner

Search our weather history database for the weather conditions in past years. The results will help you decide how hot, cold, wet, or windy it might be!

Date:

Astronomy

Oct. 27, 2013 Rise Set
Actual Time 8:22 AM CDT 6:36 PM CDT
Civil Twilight 7:50 AM CDT 7:08 PM CDT
Nautical Twilight 7:15 AM CDT 7:44 PM CDT
Astronomical Twilight 6:39 AM CDT 8:19 PM CDT
Moon 12:55 AM CDT (10/27) 3:11 PM CDT (10/27)
Length of Visible Light 11h 17m
Length of Day
10h 14m
Last Quarter, 43% of the Moon is Illuminated
Oct 27
Last Quarter
Nov 3
New
Nov 9
First Quarter
Nov 17
Full
Nov 25
Last Quarter

Hourly Weather History & Observations

Time (CDT) Temp. Windchill Dew Point Humidity Pressure Visibility Wind Dir Wind Speed Gust Speed Precip Events Conditions
12:15 AM 35.6 °F 30.7 °F 26.6 °F 70% 29.84 in 10.0 mi West 5.8 mph - N/A   Clear
12:35 AM 33.8 °F 27.0 °F 26.6 °F 75% 29.84 in 10.0 mi West 8.1 mph - N/A   Clear
12:55 AM 33.8 °F 28.6 °F 26.6 °F 75% 29.83 in 10.0 mi WSW 5.8 mph - N/A   Partly Cloudy
1:15 AM 33.8 °F 28.6 °F 26.6 °F 75% 29.83 in 10.0 mi WSW 5.8 mph - N/A   Partly Cloudy
1:35 AM 32.0 °F 25.6 °F 26.6 °F 80% 29.82 in 10.0 mi West 6.9 mph - N/A   Partly Cloudy
1:55 AM 32.0 °F 26.4 °F 26.6 °F 80% 29.82 in 10.0 mi WSW 5.8 mph - N/A   Clear
2:15 AM 32.0 °F 25.6 °F 26.6 °F 80% 29.82 in 10.0 mi WSW 6.9 mph - N/A   Clear
2:35 AM 33.8 °F 26.4 °F 28.4 °F 81% 29.81 in 10.0 mi SW 9.2 mph - N/A   Clear
2:55 AM 33.8 °F 27.0 °F 28.4 °F 81% 29.81 in 10.0 mi WSW 8.1 mph - N/A   Clear
3:15 AM 33.8 °F 27.7 °F 30.2 °F 87% 29.81 in 10.0 mi SW 6.9 mph - N/A   Clear
3:35 AM 33.8 °F 27.7 °F 30.2 °F 87% 29.81 in 10.0 mi SW 6.9 mph - N/A   Clear
3:55 AM 35.6 °F 30.7 °F 30.2 °F 81% 29.80 in 10.0 mi SW 5.8 mph - N/A   Clear
4:15 AM 33.8 °F 29.6 °F 30.2 °F 87% 29.80 in 10.0 mi SW 4.6 mph - N/A   Clear
4:35 AM 33.8 °F 30.8 °F 30.2 °F 87% 29.80 in 10.0 mi SW 3.5 mph - N/A   Clear
4:55 AM 33.8 °F 29.6 °F 30.2 °F 87% 29.80 in 10.0 mi WSW 4.6 mph - N/A   Clear
5:15 AM 32.0 °F 28.7 °F 30.2 °F 93% 29.81 in 10.0 mi SSW 3.5 mph - N/A   Clear
5:35 AM 32.0 °F 24.8 °F 28.4 °F 87% 29.82 in 10.0 mi SW 8.1 mph - N/A   Clear
5:55 AM 32.0 °F - 28.4 °F 87% 29.84 in 10.0 mi Calm Calm - N/A   Partly Cloudy
6:15 AM 30.2 °F - 28.4 °F 93% 29.84 in 10.0 mi Calm Calm - N/A   Clear
6:35 AM 28.4 °F - 26.6 °F 93% 29.84 in 10.0 mi Calm Calm - N/A   Partly Cloudy
6:55 AM 26.6 °F 22.6 °F 26.6 °F 100% 29.85 in 10.0 mi SW 3.5 mph - N/A   Clear
7:15 AM 26.6 °F - 24.8 °F 93% 29.86 in 10.0 mi Calm Calm - N/A   Clear
7:35 AM 26.6 °F - 24.8 °F 93% 29.87 in 10.0 mi Calm Calm - N/A   Clear
7:55 AM 26.6 °F 22.6 °F 24.8 °F 93% 29.88 in 10.0 mi South 3.5 mph - N/A   Clear
8:15 AM 28.4 °F - 26.6 °F 93% 29.89 in 10.0 mi Calm Calm - N/A   Partly Cloudy
8:35 AM 35.6 °F 32.8 °F 32.0 °F 87% 29.90 in 10.0 mi NNE 3.5 mph - N/A   Clear
8:55 AM 37.4 °F 32.1 °F 32.0 °F 81% 29.92 in 10.0 mi NNE 6.9 mph - N/A   Clear
9:15 AM 39.2 °F 34.2 °F 32.0 °F 75% 29.93 in 10.0 mi NE 6.9 mph - N/A   Clear
9:35 AM 41.0 °F 33.9 °F 32.0 °F 70% 29.93 in 10.0 mi NE 12.7 mph 16.1 mph N/A   Clear
9:55 AM 41.0 °F 33.5 °F 32.0 °F 70% 29.95 in 10.0 mi NE 13.8 mph 19.6 mph N/A   Clear
10:15 AM 41.0 °F 33.9 °F 32.0 °F 70% 29.95 in 10.0 mi ENE 12.7 mph 18.4 mph N/A   Clear
10:35 AM 41.0 °F 33.1 °F 32.0 °F 70% 29.96 in 10.0 mi ENE 15.0 mph 19.6 mph N/A   Clear
10:55 AM 41.0 °F 33.5 °F 32.0 °F 70% 29.97 in 10.0 mi ENE 13.8 mph 20.7 mph N/A   Clear
11:15 AM 42.8 °F 35.8 °F 30.2 °F 61% 29.98 in 10.0 mi NE 13.8 mph 20.7 mph N/A   Clear
11:35 AM 42.8 °F 35.4 °F 30.2 °F 61% 29.99 in 10.0 mi NE 15.0 mph 20.7 mph N/A   Partly Cloudy
11:55 AM 44.6 °F 36.9 °F 28.4 °F 53% 29.99 in 10.0 mi ENE 18.4 mph 24.2 mph N/A   Partly Cloudy
12:15 PM 44.6 °F 37.2 °F 28.4 °F 53% 30.00 in 10.0 mi NE 17.3 mph 24.2 mph N/A   Clear
12:35 PM 44.6 °F 37.2 °F 28.4 °F 53% 30.00 in 10.0 mi NE 17.3 mph 23.0 mph N/A   Clear
12:55 PM 44.6 °F 36.9 °F 28.4 °F 53% 30.00 in 10.0 mi NE 18.4 mph 26.5 mph N/A   Clear
1:15 PM 44.6 °F 37.8 °F 28.4 °F 53% 30.01 in 10.0 mi NE 15.0 mph 24.2 mph N/A   Partly Cloudy
1:35 PM 44.6 °F 36.6 °F 28.4 °F 53% 30.02 in 10.0 mi NE 19.6 mph 26.5 mph N/A   Scattered Clouds
1:55 PM 42.8 °F 34.5 °F 28.4 °F 57% 30.03 in 10.0 mi NE 18.4 mph 26.5 mph N/A   Mostly Cloudy
2:15 PM 39.2 °F 30.2 °F 28.4 °F 65% 30.05 in 10.0 mi NE 17.3 mph 27.6 mph N/A   Overcast
2:35 PM 39.2 °F 30.2 °F 26.6 °F 61% 30.06 in 10.0 mi NE 17.3 mph 27.6 mph N/A   Overcast
2:55 PM 39.2 °F 30.2 °F 26.6 °F 61% 30.07 in 10.0 mi NE 17.3 mph 24.2 mph N/A   Overcast
3:15 PM 37.4 °F 27.5 °F 26.6 °F 65% 30.09 in 10.0 mi NE 18.4 mph 25.3 mph N/A   Overcast
3:35 PM 37.4 °F 28.5 °F 26.6 °F 65% 30.10 in 10.0 mi NE 15.0 mph 24.2 mph N/A   Overcast
3:55 PM 37.4 °F 28.9 °F 28.4 °F 70% 30.11 in 10.0 mi NE 13.8 mph 19.6 mph N/A   Overcast
4:15 PM 37.4 °F 28.5 °F 26.6 °F 65% 30.12 in 10.0 mi ENE 15.0 mph 24.2 mph N/A   Overcast
4:55 PM 37.4 °F 28.9 °F 26.6 °F 65% 30.15 in 10.0 mi ENE 13.8 mph 21.9 mph N/A   Overcast
5:15 PM 35.6 °F 27.1 °F 26.6 °F 70% 30.16 in 10.0 mi NE 12.7 mph 20.7 mph N/A   Overcast
5:35 PM 35.6 °F 27.1 °F 28.4 °F 75% 30.18 in 10.0 mi NE 12.7 mph 21.9 mph N/A   Mostly Cloudy
5:55 PM 35.6 °F 25.2 °F 26.6 °F 70% 30.19 in 10.0 mi NE 18.4 mph 23.0 mph N/A   Mostly Cloudy
6:15 PM 33.8 °F 23.9 °F 26.6 °F 75% 30.20 in 10.0 mi NE 15.0 mph 21.9 mph N/A   Overcast
6:35 PM 33.8 °F 24.3 °F 26.6 °F 75% 30.21 in 10.0 mi ENE 13.8 mph 23.0 mph N/A   Overcast
6:55 PM 32.0 °F 21.2 °F 26.6 °F 80% 30.22 in 10.0 mi NE 16.1 mph 27.6 mph N/A   Overcast
7:15 PM 32.0 °F 21.2 °F 26.6 °F 80% 30.24 in 10.0 mi NE 16.1 mph 24.2 mph N/A   Overcast
7:35 PM 32.0 °F 20.8 °F 24.8 °F 75% 30.25 in 10.0 mi ENE 17.3 mph 25.3 mph N/A   Overcast
7:55 PM 32.0 °F 20.5 °F 24.8 °F 75% 30.26 in 10.0 mi ENE 18.4 mph 25.3 mph N/A   Overcast
8:15 PM 32.0 °F 20.5 °F 23.0 °F 69% 30.27 in 10.0 mi NE 18.4 mph 27.6 mph N/A   Overcast
8:35 PM 30.2 °F 17.8 °F 23.0 °F 75% 30.29 in 10.0 mi ENE 19.6 mph 26.5 mph N/A   Overcast
8:55 PM 28.4 °F 15.8 °F 21.2 °F 74% 30.30 in 10.0 mi ENE 18.4 mph 25.3 mph N/A   Overcast
9:15 PM 28.4 °F 16.6 °F 21.2 °F 74% 30.31 in 10.0 mi ENE 16.1 mph 23.0 mph N/A   Overcast
9:35 PM 28.4 °F 16.6 °F 21.2 °F 74% 30.33 in 10.0 mi ENE 16.1 mph 20.7 mph N/A   Overcast
9:55 PM 26.6 °F 14.7 °F 19.4 °F 74% 30.34 in 10.0 mi ENE 15.0 mph 25.3 mph N/A   Overcast
10:15 PM 26.6 °F 14.7 °F 19.4 °F 74% 30.35 in 10.0 mi ENE 15.0 mph 23.0 mph N/A   Overcast
10:35 PM 26.6 °F 13.4 °F 19.4 °F 74% 30.36 in 10.0 mi ENE 18.4 mph 23.0 mph N/A   Overcast
10:55 PM 26.6 °F 14.7 °F 19.4 °F 74% 30.37 in 10.0 mi NE 15.0 mph 20.7 mph N/A   Overcast
11:15 PM 26.6 °F 16.8 °F 17.6 °F 69% 30.38 in 10.0 mi ENE 10.4 mph 21.9 mph N/A   Overcast
11:35 PM 26.6 °F 16.8 °F 17.6 °F 69% 30.39 in 10.0 mi NE 10.4 mph 20.7 mph N/A   Overcast
11:55 PM 24.8 °F 12.9 °F 17.6 °F 74% 30.40 in 10.0 mi NE 13.8 mph 20.7 mph N/A   Overcast